createdAt,value
2022-11-21T00:02:00.534Z,32.60
2022-11-21T00:12:04.351Z,27.00
2022-11-21T00:22:07.970Z,23.60
2022-11-21T00:32:11.485Z,23.40
2022-11-21T00:42:15.144Z,17.20
2022-11-21T00:52:18.820Z,21.50
2022-11-21T01:02:22.480Z,19.60
2022-11-21T01:12:26.079Z,11.20
2022-11-21T01:22:29.696Z,12.60
2022-11-21T01:32:33.278Z,10.70
2022-11-21T01:43:04.156Z,10.20
2022-11-21T01:53:07.785Z,10.10
2022-11-21T02:03:14.785Z,8.30
2022-11-21T02:13:18.349Z,9.10
2022-11-21T02:23:34.982Z,10.80
2022-11-21T02:33:38.523Z,8.50
2022-11-21T02:43:51.011Z,6.10
2022-11-21T02:53:54.499Z,7.70
2022-11-21T03:03:58.043Z,8.40
2022-11-21T03:14:01.562Z,11.50
2022-11-21T03:24:05.995Z,10.40
2022-11-21T03:34:09.580Z,9.30
2022-11-21T03:44:13.495Z,11.60
2022-11-21T03:54:17.003Z,12.10
2022-11-21T04:04:21.058Z,10.70
2022-11-21T04:14:24.616Z,12.30
2022-11-21T04:24:28.303Z,12.10
2022-11-21T04:34:32.005Z,11.90
2022-11-21T04:44:35.648Z,13.30
2022-11-21T04:54:39.205Z,12.90
2022-11-21T05:04:42.727Z,11.50
2022-11-21T05:14:46.313Z,10.30
2022-11-21T05:24:49.904Z,9.40
2022-11-21T05:34:53.501Z,9.20
2022-11-21T05:44:57.002Z,10.30
2022-11-21T05:55:00.627Z,12.20
2022-11-21T06:05:04.594Z,11.90
2022-11-21T06:15:08.605Z,14.00
2022-11-21T06:25:12.270Z,18.50
2022-11-21T06:35:16.361Z,16.40
2022-11-21T06:45:19.976Z,18.50
2022-11-21T06:55:23.919Z,16.40
2022-11-21T07:05:28.968Z,18.90
2022-11-21T07:15:33.416Z,25.00
2022-11-21T07:25:38.067Z,26.00
2022-11-21T07:35:43.699Z,25.70
2022-11-21T07:45:47.725Z,30.60
2022-11-21T07:55:51.479Z,34.20
2022-11-21T08:05:55.119Z,32.30
2022-11-21T08:15:59.040Z,34.30
2022-11-21T08:26:02.689Z,35.10
2022-11-21T08:36:07.360Z,35.70
2022-11-21T08:46:10.976Z,13.00
2022-11-21T08:56:14.935Z,12.20
2022-11-21T09:06:18.604Z,12.00
2022-11-21T09:16:41.102Z,16.30
2022-11-21T09:26:46.966Z,17.40
2022-11-21T09:36:50.886Z,15.90
2022-11-21T09:47:04.535Z,16.00
2022-11-21T09:57:12.419Z,13.80
2022-11-21T10:07:27.401Z,15.80
2022-11-21T10:17:49.836Z,15.90
2022-11-21T10:28:14.609Z,13.90
2022-11-21T10:38:29.459Z,11.60
2022-11-21T10:48:33.583Z,11.60
2022-11-21T10:58:44.688Z,11.90
2022-11-21T11:08:53.187Z,7.60
2022-11-21T11:19:32.916Z,4.00
2022-11-21T11:29:52.998Z,5.50
2022-11-21T11:40:08.981Z,5.40
2022-11-21T11:50:19.628Z,5.20
2022-11-21T12:00:31.329Z,5.70
2022-11-21T12:11:03.366Z,5.60
2022-11-21T12:21:20.992Z,4.80
2022-11-21T12:32:03.065Z,4.10
2022-11-21T12:42:36.815Z,3.60
2022-11-21T12:53:24.274Z,4.00
2022-11-21T13:03:39.923Z,3.40
2022-11-21T13:13:47.313Z,5.10
2022-11-21T13:33:55.003Z,5.50
2022-11-21T13:44:31.238Z,5.30
2022-11-21T13:54:42.862Z,6.50
2022-11-21T14:05:06.577Z,5.40
2022-11-21T14:15:22.321Z,7.00
2022-11-21T14:25:41.485Z,6.30
2022-11-21T14:35:51.994Z,5.90
2022-11-21T14:45:55.623Z,6.20
2022-11-21T14:56:01.611Z,9.00
2022-11-21T15:06:11.143Z,12.20
2022-11-21T15:16:15.213Z,12.10
2022-11-21T15:26:31.983Z,11.60
2022-11-21T15:36:35.640Z,17.10
2022-11-21T15:46:42.785Z,13.90
2022-11-21T16:06:51.382Z,14.70
2022-11-21T16:16:56.204Z,17.40
2022-11-21T16:27:00.019Z,16.70
2022-11-21T16:37:07.274Z,23.90
2022-11-21T16:57:16.126Z,22.80
2022-11-21T17:07:21.098Z,29.00
2022-11-21T17:17:25.702Z,28.60
2022-11-21T17:27:33.981Z,31.60
2022-11-21T17:37:39.900Z,32.90
2022-11-21T17:47:44.581Z,35.70
2022-11-21T17:57:49.463Z,34.60
2022-11-21T18:07:55.126Z,39.10
2022-11-21T18:17:59.560Z,38.00
2022-11-21T18:28:06.024Z,36.80
2022-11-21T18:38:40.222Z,43.60
2022-11-21T18:49:01.609Z,39.90
2022-11-21T18:59:09.460Z,41.50
2022-11-21T19:09:16.110Z,59.80
2022-11-21T19:19:37.220Z,49.20
2022-11-21T19:29:42.582Z,34.50
2022-11-21T19:39:47.967Z,43.90
2022-11-21T19:49:54.931Z,43.90
2022-11-21T19:59:59.403Z,47.20
2022-11-21T20:10:05.324Z,47.90
2022-11-21T20:20:11.139Z,74.90
2022-11-21T20:30:17.455Z,46.60
2022-11-21T20:40:22.610Z,37.20
2022-11-21T20:51:18.044Z,38.20
2022-11-21T21:00:52.897Z,42.50
2022-11-21T21:11:20.930Z,53.10
2022-11-21T21:21:35.199Z,43.30
2022-11-21T21:31:40.241Z,36.30
2022-11-21T21:41:47.518Z,41.00
2022-11-21T21:51:51.559Z,46.40
2022-11-21T22:01:55.700Z,39.80
2022-11-21T22:11:59.791Z,38.70
2022-11-21T22:22:03.455Z,41.30
2022-11-21T22:32:07.234Z,42.60
2022-11-21T22:42:11.023Z,49.30
2022-11-21T22:52:14.985Z,46.80
2022-11-21T23:02:18.927Z,48.10
2022-11-21T23:12:23.646Z,50.40
2022-11-21T23:22:27.288Z,48.50
2022-11-21T23:32:31.069Z,46.80
2022-11-21T23:42:36.157Z,44.20
2022-11-21T23:52:39.816Z,37.10
